Time;durP1;ratioP1;P1;durP2;ratioP2;P2;SDS_P1;SDS_P2;PMS_P1;PMS_P2;Temp;Humidity;BMP_temperature;BMP_pressure;BME280_temperature;BME280_humidity;BME280_pressure;Samples;Min_cycle;Max_cycle;Signal;HPM_P1;HPM_P2
2021/03/13 00:02:23;;;;;;;2.07;0.30;;;;;;;6.39;76.21;97248.03;5055721;28;20278;-76
2021/03/13 00:04:49;;;;;;;0.30;0.20;;;;;;;6.44;76.30;97246.13;5055455;28;20241;-76
2021/03/13 00:07:16;;;;;;;0.30;0.15;;;;;;;6.39;76.11;97246.28;5056464;28;20229;-76
2021/03/13 00:09:45;;;;;;;0.40;0.25;;;;;;;6.35;76.14;97248.13;5056414;28;20209;-75
2021/03/13 00:12:11;;;;;;;0.60;0.20;;;;;;;6.33;76.50;97249.94;5057740;28;20298;-75
2021/03/13 00:14:37;;;;;;;0.47;0.20;;;;;;;6.48;76.16;97247.69;5057830;28;20233;-74
2021/03/13 00:17:03;;;;;;;0.20;0.10;;;;;;;6.57;75.48;97231.81;5057665;28;20284;-75
2021/03/13 00:19:30;;;;;;;0.63;0.20;;;;;;;6.59;75.25;97237.78;5058814;28;20213;-75
2021/03/13 00:21:56;;;;;;;0.57;0.25;;;;;;;6.62;74.94;97240.25;5057027;28;20371;-75
2021/03/13 00:24:22;;;;;;;0.57;0.30;;;;;;;6.44;75.25;97253.88;5059095;28;20698;-75
2021/03/13 00:26:48;;;;;;;0.70;0.17;;;;;;;6.47;75.51;97257.22;5059233;28;20245;-74
2021/03/13 00:29:15;;;;;;;1.40;0.25;;;;;;;6.47;74.94;97240.81;5060198;28;20205;-75
2021/03/13 00:31:41;;;;;;;0.93;0.10;;;;;;;6.39;75.80;97242.84;5060483;28;20722;-74
2021/03/13 00:34:07;;;;;;;0.70;0.20;;;;;;;6.40;75.31;97247.13;5061248;28;20252;-75
2021/03/13 00:36:33;;;;;;;1.08;0.28;;;;;;;6.42;75.03;97234.97;5060911;28;20245;-75
2021/03/13 00:38:59;;;;;;;0.82;0.20;;;;;;;6.51;74.53;97239.81;5062090;28;20221;-75
2021/03/13 00:41:25;;;;;;;1.90;0.40;;;;;;;6.48;74.84;97247.69;5060759;28;20252;-74
2021/03/13 00:43:52;;;;;;;1.10;0.30;;;;;;;6.46;74.74;97244.31;5060524;28;20210;-75
2021/03/13 00:46:18;;;;;;;0.00;0.00;;;;;;;6.32;75.70;97243.06;5059303;28;20239;-74
2021/03/13 00:48:44;;;;;;;1.85;0.10;;;;;;;6.33;76.06;97239.56;5059684;28;20209;-75
2021/03/13 00:51:10;;;;;;;1.43;0.30;;;;;;;6.25;80.39;97240.75;5060655;28;20241;-74
2021/03/13 00:53:36;;;;;;;2.17;0.30;;;;;;;6.17;82.32;97238.44;5061653;28;20270;-76
2021/03/13 00:56:03;;;;;;;0.80;0.25;;;;;;;6.15;80.85;97246.25;5061095;28;20252;-75
2021/03/13 00:58:29;;;;;;;0.75;0.20;;;;;;;6.07;82.13;97226.72;5061382;28;20221;-77
2021/03/13 01:00:56;;;;;;;0.60;0.30;;;;;;;5.90;83.22;97209.13;5059260;28;20241;-77
2021/03/13 01:03:22;;;;;;;2.27;0.30;;;;;;;5.80;84.25;97218.97;5058711;28;20816;-77
2021/03/13 01:05:48;;;;;;;3.00;0.63;;;;;;;5.85;84.02;97218.84;5059851;28;20233;-77
2021/03/13 01:08:14;;;;;;;1.52;0.50;;;;;;;5.75;85.12;97215.69;5059883;28;20991;-76
2021/03/13 01:10:41;;;;;;;0.85;0.45;;;;;;;5.76;85.64;97219.97;5059460;28;20233;-77
2021/03/13 01:13:07;;;;;;;0.63;0.20;;;;;;;5.76;85.50;97215.66;5061133;28;20257;-76
2021/03/13 01:15:33;;;;;;;2.40;0.30;;;;;;;5.70;85.96;97213.28;5060412;28;20252;-76
2021/03/13 01:18:01;;;;;;;1.87;0.40;;;;;;;5.71;86.29;97211.53;5060709;28;20435;-76
2021/03/13 01:20:27;;;;;;;0.70;0.28;;;;;;;5.69;86.80;97215.91;5059976;28;20245;-75
2021/03/13 01:22:54;;;;;;;1.38;0.38;;;;;;;5.76;85.97;97213.06;5059136;28;20300;-76
2021/03/13 01:25:20;;;;;;;0.60;0.40;;;;;;;5.69;86.74;97221.09;5058894;28;20256;-76
2021/03/13 01:27:47;;;;;;;1.03;0.50;;;;;;;5.67;86.29;97207.38;5058674;28;20320;-77
2021/03/13 01:30:15;;;;;;;1.07;0.20;;;;;;;5.68;86.23;97206.44;5059130;28;20209;-76
2021/03/13 01:32:41;;;;;;;1.00;0.30;;;;;;;5.70;86.00;97212.44;5059010;28;20686;-77
2021/03/13 01:35:09;;;;;;;3.37;0.60;;;;;;;5.71;86.50;97201.19;5058163;28;20733;-76
2021/03/13 01:37:35;;;;;;;1.17;0.30;;;;;;;5.67;86.85;97187.50;5059854;28;20981;-75
2021/03/13 01:40:01;;;;;;;1.73;0.40;;;;;;;5.76;85.83;97191.53;5060898;28;20202;-76
2021/03/13 01:42:27;;;;;;;1.10;0.20;;;;;;;5.76;85.85;97186.34;5060596;28;20239;-75
2021/03/13 01:44:53;;;;;;;0.30;0.20;;;;;;;5.78;85.79;97184.53;5058246;28;20213;-76
2021/03/13 01:47:21;;;;;;;0.07;0.03;;;;;;;5.82;85.73;97186.13;5058966;28;20251;-75
2021/03/13 01:49:50;;;;;;;3.40;0.37;;;;;;;5.87;85.38;97183.38;5058997;28;20228;-76
2021/03/13 01:52:16;;;;;;;1.07;0.30;;;;;;;5.92;84.45;97171.97;5058237;28;20244;-76
2021/03/13 01:54:43;;;;;;;0.77;0.30;;;;;;;5.91;84.76;97172.84;5057947;28;20232;-75
2021/03/13 01:57:09;;;;;;;3.07;0.40;;;;;;;5.91;84.70;97170.28;5059208;28;20257;-77
2021/03/13 01:59:35;;;;;;;0.33;0.20;;;;;;;5.89;84.95;97174.66;5058733;28;20222;-76
2021/03/13 02:02:05;;;;;;;1.20;0.10;;;;;;;5.75;85.86;97174.28;5057672;28;20222;-76
2021/03/13 02:04:31;;;;;;;1.73;0.40;;;;;;;5.80;86.14;97174.97;5058837;28;20209;-76
2021/03/13 02:07:02;;;;;;;0.67;0.30;;;;;;;5.81;86.55;97163.75;5056999;28;20241;-79
2021/03/13 02:09:30;;;;;;;0.33;0.20;;;;;;;5.69;88.91;97169.34;5059021;28;20712;-78
2021/03/13 02:12:07;;;;;;;0.52;0.10;;;;;;;5.60;93.13;97166.16;5056773;28;20611;-78
2021/03/13 02:14:36;;;;;;;1.83;0.30;;;;;;;5.59;92.42;97163.66;5057809;28;21012;-79
2021/03/13 02:17:07;;;;;;;0.23;0.10;;;;;;;5.55;93.93;97162.91;5058578;28;20940;-78
2021/03/13 02:20:04;;;;;;;1.35;0.40;;;;;;;5.56;94.46;97159.41;5059678;28;20220;-79
2021/03/13 02:22:33;;;;;;;1.35;0.30;;;;;;;5.62;94.12;97168.69;5040187;28;20221;-79
2021/03/13 02:25:06;;;;;;;1.00;0.30;;;;;;;5.56;93.61;97159.41;5040257;28;20203;-79
2021/03/13 02:27:40;;;;;;;1.50;0.27;;;;;;;5.47;95.36;97146.78;5038610;28;20230;-79
2021/03/13 02:30:09;;;;;;;0.53;0.10;;;;;;;5.47;96.39;97158.88;5037665;28;20213;-79
2021/03/13 02:32:41;;;;;;;0.27;0.13;;;;;;;5.48;97.08;97151.09;5036588;28;20214;-80
2021/03/13 02:35:10;;;;;;;0.97;0.40;;;;;;;5.54;96.68;97150.84;5037633;28;20632;-79
2021/03/13 02:37:41;;;;;;;0.63;0.33;;;;;;;5.52;96.62;97151.81;5037622;28;20242;-79
2021/03/13 02:40:09;;;;;;;1.43;0.30;;;;;;;5.49;96.11;97145.00;5038777;28;20625;-80
2021/03/13 02:42:41;;;;;;;1.27;0.47;;;;;;;5.48;97.20;97139.91;5037108;28;20233;-79
2021/03/13 02:45:09;;;;;;;0.73;0.30;;;;;;;5.45;97.76;97143.41;5035490;28;20806;-79
2021/03/13 02:47:36;;;;;;;1.00;0.40;;;;;;;5.44;99.48;97134.00;5038155;28;20746;-79
2021/03/13 02:50:03;;;;;;;0.50;0.40;;;;;;;5.53;97.70;97138.84;5037774;28;20209;-79
2021/03/13 02:52:30;;;;;;;0.63;0.15;;;;;;;5.52;96.90;97131.97;5037409;28;20785;-79
2021/03/13 02:54:57;;;;;;;1.70;0.40;;;;;;;5.53;97.32;97141.44;5036267;28;20256;-78
2021/03/13 02:57:24;;;;;;;1.50;0.50;;;;;;;5.50;98.10;97138.94;5037507;28;20234;-79
2021/03/13 02:59:51;;;;;;;1.77;0.47;;;;;;;5.49;96.71;97139.00;5038304;28;20218;-79
2021/03/13 03:02:18;;;;;;;1.83;0.30;;;;;;;5.53;96.83;97136.25;5036485;28;20236;-77
2021/03/13 03:04:45;;;;;;;0.63;0.40;;;;;;;5.46;97.52;97127.03;5037411;28;20214;-77
2021/03/13 03:07:12;;;;;;;0.90;0.50;;;;;;;5.47;96.42;97123.50;5037173;28;20233;-78
2021/03/13 03:09:39;;;;;;;1.05;0.30;;;;;;;5.50;97.01;97133.75;5038332;28;20198;-78
2021/03/13 03:12:07;;;;;;;0.35;0.17;;;;;;;5.45;97.27;97130.47;5037539;28;20233;-78
2021/03/13 03:14:33;;;;;;;0.73;0.38;;;;;;;5.48;97.52;97124.38;5037739;28;20723;-77
2021/03/13 03:17:03;;;;;;;1.10;0.52;;;;;;;5.50;97.24;97118.25;5037089;28;20387;-77
2021/03/13 03:19:30;;;;;;;1.27;0.50;;;;;;;5.45;97.94;97120.13;5036421;28;20825;-77
2021/03/13 03:21:56;;;;;;;0.93;0.47;;;;;;;5.46;97.43;97113.22;5036713;28;20238;-77
2021/03/13 03:24:22;;;;;;;0.75;0.30;;;;;;;5.47;96.98;97113.16;5036653;28;20207;-77
2021/03/13 03:26:50;;;;;;;1.57;0.50;;;;;;;5.46;96.82;97110.63;5038020;28;20776;-79
2021/03/13 03:29:17;;;;;;;2.30;0.30;;;;;;;5.47;96.69;97102.00;5037367;28;20242;-79
2021/03/13 03:31:43;;;;;;;0.93;0.60;;;;;;;5.48;96.48;97101.94;5036900;28;20296;-81
2021/03/13 03:34:09;;;;;;;0.57;0.20;;;;;;;5.45;96.79;97093.44;5038355;28;20233;-80
2021/03/13 03:36:39;;;;;;;0.90;0.40;;;;;;;5.46;96.94;97098.56;5037114;28;20930;-80
2021/03/13 03:39:05;;;;;;;0.97;0.50;;;;;;;5.44;98.91;97092.59;5035936;28;20220;-79
2021/03/13 03:41:33;;;;;;;1.67;0.80;;;;;;;5.42;98.66;97091.78;5037481;28;20356;-80
2021/03/13 03:44:02;;;;;;;1.83;0.53;;;;;;;5.38;99.63;97087.63;5036359;28;20871;-79
2021/03/13 03:48:15;;;;;;;0.30;0.30;;;;;;;5.42;99.33;97078.84;5106674;27;20530;-81
2021/03/13 03:50:43;;;;;;;0.70;0.43;;;;;;;5.44;99.32;97079.69;5075478;28;20785;-81
2021/03/13 03:53:14;;;;;;;1.33;0.70;;;;;;;5.46;98.47;97079.59;5057330;28;20279;-81
2021/03/13 03:55:43;;;;;;;0.77;0.30;;;;;;;5.38;100.00;97066.94;5059085;28;20264;-80
2021/03/13 03:58:09;;;;;;;0.97;0.40;;;;;;;5.44;100.00;97056.41;5061870;28;20895;-80
2021/03/13 04:00:36;;;;;;;2.63;0.50;;;;;;;5.37;100.00;97065.28;5062501;28;20320;-80
2021/03/13 04:03:05;;;;;;;1.15;0.45;;;;;;;5.47;99.53;97056.28;5066264;28;20205;-80
2021/03/13 04:05:32;;;;;;;1.47;0.50;;;;;;;5.49;99.64;97049.28;5064183;28;20318;-80
2021/03/13 04:07:59;;;;;;;0.80;0.60;;;;;;;5.55;99.38;97046.50;5062693;28;20236;-80
2021/03/13 04:10:25;;;;;;;1.85;0.70;;;;;;;5.59;99.60;97045.50;5062983;28;20239;-80
2021/03/13 04:12:53;;;;;;;0.60;0.50;;;;;;;5.62;98.59;97044.53;5060238;28;20213;-80
2021/03/13 04:15:19;;;;;;;1.37;0.50;;;;;;;5.57;99.51;97034.34;5060926;28;20218;-79
2021/03/13 04:17:45;;;;;;;0.40;0.30;;;;;;;5.61;100.00;97037.69;5061525;28;20233;-81
2021/03/13 04:20:12;;;;;;;0.63;0.35;;;;;;;5.57;100.00;97036.94;5062796;28;20213;-79
2021/03/13 04:22:40;;;;;;;0.97;0.50;;;;;;;5.53;100.00;97030.22;5061861;28;20212;-79
2021/03/13 04:25:08;;;;;;;1.58;0.50;;;;;;;5.62;99.86;97028.16;5070315;28;20219;-78
2021/03/13 04:27:34;;;;;;;0.70;0.40;;;;;;;5.60;100.00;97026.47;5066866;28;20237;-79
2021/03/13 04:30:00;;;;;;;2.10;0.40;;;;;;;5.66;100.00;97016.81;5064491;28;20213;-79
2021/03/13 04:32:27;;;;;;;1.63;0.60;;;;;;;5.72;99.63;97019.19;5064919;28;20801;-78
2021/03/13 04:34:54;;;;;;;3.20;0.70;;;;;;;5.70;100.00;97011.47;5064294;28;20209;-80
2021/03/13 04:37:22;;;;;;;0.95;0.50;;;;;;;5.66;99.78;97003.88;5063972;28;20356;-78
2021/03/13 04:39:50;;;;;;;1.35;0.68;;;;;;;5.71;100.00;97005.38;5061750;28;20220;-78
2021/03/13 04:42:16;;;;;;;1.58;0.93;;;;;;;5.69;100.00;97001.16;5059537;28;20238;-79
2021/03/13 04:44:43;;;;;;;1.93;0.67;;;;;;;5.72;99.92;97001.06;5068947;28;20209;-78
2021/03/13 04:47:10;;;;;;;0.57;0.40;;;;;;;5.69;100.00;96998.59;5064765;28;20233;-78
2021/03/13 04:49:36;;;;;;;2.70;0.57;;;;;;;5.75;99.59;96988.00;5063093;28;20213;-80
2021/03/13 04:52:02;;;;;;;0.95;0.45;;;;;;;5.75;100.00;96982.81;5059161;28;20233;-80
2021/03/13 04:54:28;;;;;;;2.00;0.57;;;;;;;5.70;99.38;96985.59;5061905;28;20252;-78
2021/03/13 04:56:58;;;;;;;1.13;0.70;;;;;;;5.70;99.36;96988.19;5058423;28;20245;-78
2021/03/13 04:59:24;;;;;;;1.92;0.80;;;;;;;5.69;99.71;96977.88;5047181;28;20220;-78
2021/03/13 05:01:50;;;;;;;1.58;0.60;;;;;;;5.72;98.83;96973.44;5045464;28;20233;-78
2021/03/13 05:04:16;;;;;;;1.43;1.10;;;;;;;5.72;98.91;96973.44;5052606;28;20244;-78
2021/03/13 05:06:42;;;;;;;1.40;0.60;;;;;;;5.60;99.46;96979.91;5051271;28;20320;-77
2021/03/13 05:09:08;;;;;;;3.97;0.43;;;;;;;5.68;98.46;96971.00;5048031;28;20848;-77
2021/03/13 05:11:34;;;;;;;1.60;0.50;;;;;;;5.67;98.60;96965.00;5046579;28;20230;-77
2021/03/13 05:14:02;;;;;;;2.40;0.40;;;;;;;5.66;98.61;96967.66;5045420;28;20602;-77
2021/03/13 05:16:28;;;;;;;2.27;0.70;;;;;;;5.66;98.98;96967.66;5042698;28;20374;-77
2021/03/13 05:18:54;;;;;;;1.80;0.43;;;;;;;5.75;97.48;96962.13;5044964;28;20941;-77
2021/03/13 05:21:21;;;;;;;1.55;0.55;;;;;;;5.77;97.12;96957.72;5044846;28;20714;-77
2021/03/13 05:23:47;;;;;;;2.77;0.50;;;;;;;5.77;96.23;96955.13;5049080;28;20217;-77
2021/03/13 05:26:13;;;;;;;1.90;0.73;;;;;;;5.76;96.04;96959.47;5048404;28;20234;-76
2021/03/13 05:28:39;;;;;;;1.80;0.50;;;;;;;5.76;97.15;96953.47;5050279;28;20205;-76
2021/03/13 05:31:06;;;;;;;1.60;0.50;;;;;;;5.74;97.52;96955.28;5047259;28;20268;-77
2021/03/13 05:33:32;;;;;;;1.95;0.35;;;;;;;5.72;97.90;96952.75;5044224;28;20271;-76
2021/03/13 05:35:58;;;;;;;1.30;0.60;;;;;;;5.76;97.15;96950.88;5044367;28;20241;-76
2021/03/13 05:38:24;;;;;;;2.63;0.93;;;;;;;5.77;96.91;96944.78;5041840;28;20237;-76
2021/03/13 05:40:50;;;;;;;1.27;0.40;;;;;;;5.77;95.71;96945.66;5043960;28;20237;-76
2021/03/13 05:43:16;;;;;;;5.93;1.03;;;;;;;5.79;95.67;96943.00;5047299;28;20221;-75
2021/03/13 05:45:43;;;;;;;1.20;0.40;;;;;;;5.80;94.57;96944.69;5049430;28;20291;-76
2021/03/13 05:48:10;;;;;;;2.50;0.60;;;;;;;5.83;93.10;96938.56;5049813;28;20329;-78
2021/03/13 05:50:36;;;;;;;2.78;0.60;;;;;;;5.82;94.68;96932.53;5044879;28;20246;-76
2021/03/13 05:53:04;;;;;;;2.88;0.52;;;;;;;5.85;93.94;96932.41;5045511;28;20620;-76
2021/03/13 05:55:30;;;;;;;2.13;0.60;;;;;;;5.90;93.90;96942.56;5043166;28;20950;-76
2021/03/13 05:57:57;;;;;;;2.03;0.57;;;;;;;5.95;93.53;96945.81;5044347;28;20329;-76
2021/03/13 06:00:23;;;;;;;1.70;0.70;;;;;;;5.97;93.09;96931.09;5043534;28;20332;-75
2021/03/13 06:02:50;;;;;;;1.50;0.50;;;;;;;6.02;91.91;96938.69;5034605;28;20213;-76
2021/03/13 06:05:17;;;;;;;2.10;0.70;;;;;;;6.02;92.22;96933.53;5052210;28;20221;-76
2021/03/13 06:07:43;;;;;;;2.17;0.67;;;;;;;6.08;92.65;96933.28;5050370;28;20235;-76
2021/03/13 06:10:13;;;;;;;3.83;1.00;;;;;;;6.07;91.23;96941.97;5047796;28;20218;-75
2021/03/13 06:12:39;;;;;;;4.10;0.73;;;;;;;6.14;90.49;96933.88;5046095;28;20230;-75
2021/03/13 06:15:06;;;;;;;2.03;0.63;;;;;;;6.21;90.04;96931.03;5046922;28;20221;-75
2021/03/13 06:17:51;;;;;;;2.20;0.80;;;;;;;6.25;88.04;96930.88;5045786;28;20729;-75
2021/03/13 06:20:20;;;;;;;2.40;0.63;;;;;;;6.24;90.05;96929.16;5048255;28;20209;-76
2021/03/13 06:22:46;;;;;;;2.33;0.80;;;;;;;6.22;91.46;96928.38;5049622;28;20218;-76
2021/03/13 06:25:28;;;;;;;1.42;0.85;;;;;;;6.32;89.41;96932.28;5054297;28;20225;-76
2021/03/13 06:28:09;;;;;;;3.20;0.90;;;;;;;6.41;89.02;96925.88;5050184;28;20233;-77
2021/03/13 06:30:36;;;;;;;1.60;0.70;;;;;;;6.41;89.55;96919.84;5048842;28;20245;-76
2021/03/13 06:33:24;;;;;;;2.23;0.93;;;;;;;6.47;88.87;96917.88;5046050;28;20236;-77
2021/03/13 06:35:52;;;;;;;2.13;1.02;;;;;;;6.54;88.18;96911.53;5044426;28;20242;-77
2021/03/13 06:38:20;;;;;;;0.67;0.37;;;;;;;6.57;89.58;96905.34;5046791;28;20233;-76
2021/03/13 06:40:47;;;;;;;1.48;0.70;;;;;;;6.64;89.36;96911.13;5045644;28;21076;-76
2021/03/13 06:43:25;;;;;;;1.20;0.60;;;;;;;6.70;84.75;96910.88;5045588;28;20221;-76
2021/03/13 06:46:00;;;;;;;1.95;0.70;;;;;;;6.74;85.75;96908.06;5048004;28;20234;-76
2021/03/13 06:48:44;;;;;;;1.73;0.70;;;;;;;6.81;85.81;96913.81;5053464;28;20233;-77
2021/03/13 06:51:22;;;;;;;2.90;0.60;;;;;;;6.86;85.41;96909.28;5048318;28;20643;-76
2021/03/13 06:54:09;;;;;;;1.65;0.43;;;;;;;6.89;83.25;96913.50;5046157;28;20879;-76
2021/03/13 06:56:37;;;;;;;1.95;0.38;;;;;;;6.94;85.25;96902.00;5044639;28;20234;-76
2021/03/13 06:59:17;;;;;;;2.10;0.75;;;;;;;7.01;84.81;96897.41;5045916;28;20218;-76
2021/03/13 07:01:43;;;;;;;1.43;0.60;;;;;;;7.03;85.41;96895.59;5046350;28;20615;-75
2021/03/13 07:04:09;;;;;;;1.90;0.70;;;;;;;7.07;85.72;96894.53;5049825;28;20218;-76
2021/03/13 07:06:44;;;;;;;1.33;0.50;;;;;;;7.12;85.47;96907.31;5050379;28;20243;-75
2021/03/13 07:09:10;;;;;;;1.20;0.47;;;;;;;7.14;83.36;96875.19;5051798;28;20841;-76
2021/03/13 07:11:36;;;;;;;1.17;0.47;;;;;;;7.18;85.17;96882.84;5046585;28;20229;-77
2021/03/13 07:14:02;;;;;;;2.25;0.63;;;;;;;7.20;86.53;96884.44;5045559;28;20221;-76
2021/03/13 07:16:31;;;;;;;1.75;0.60;;;;;;;7.24;84.90;96879.97;5044668;28;20324;-76
2021/03/13 07:18:59;;;;;;;1.05;0.55;;;;;;;7.31;84.47;96878.78;5048681;28;20599;-78
2021/03/13 07:21:26;;;;;;;1.77;1.10;;;;;;;7.31;84.16;96871.00;5052800;28;20600;-78
2021/03/13 07:23:56;;;;;;;0.75;0.40;;;;;;;7.37;84.47;96878.50;5048625;28;20297;-76
2021/03/13 07:26:28;;;;;;;2.40;0.40;;;;;;;7.40;82.53;96883.53;5047150;28;20241;-76
2021/03/13 07:28:58;;;;;;;2.47;0.60;;;;;;;7.45;83.12;96879.00;5045985;28;20226;-76
2021/03/13 07:31:27;;;;;;;2.80;0.70;;;;;;;7.51;80.40;96863.13;5045370;28;20287;-76
2021/03/13 07:33:55;;;;;;;1.35;0.57;;;;;;;7.55;81.85;96868.19;5044873;28;20218;-76
2021/03/13 07:36:22;;;;;;;1.73;0.68;;;;;;;7.57;82.30;96859.41;5044400;28;20241;-76
2021/03/13 07:38:50;;;;;;;1.23;0.60;;;;;;;7.67;81.24;96863.25;5049105;28;20586;-77
2021/03/13 07:41:18;;;;;;;1.15;0.40;;;;;;;7.71;81.30;96861.34;5050631;28;20291;-77
2021/03/13 07:43:45;;;;;;;2.47;0.68;;;;;;;7.80;79.67;96854.88;5050434;28;20210;-77
2021/03/13 07:46:12;;;;;;;0.75;0.50;;;;;;;7.85;80.27;96856.34;5045759;28;20234;-77
2021/03/13 07:48:39;;;;;;;1.60;0.70;;;;;;;7.91;78.04;96845.66;5047413;28;20293;-76
2021/03/13 07:51:06;;;;;;;1.83;0.65;;;;;;;7.96;79.15;96841.97;5047480;28;20352;-77
2021/03/13 07:53:37;;;;;;;0.70;0.30;;;;;;;7.98;77.20;96838.41;5044803;28;20218;-77
2021/03/13 07:56:04;;;;;;;1.75;0.50;;;;;;;8.01;79.24;96830.44;5044347;28;20387;-76
2021/03/13 07:58:31;;;;;;;1.63;0.32;;;;;;;8.08;79.80;96831.00;5045102;28;20865;-76
2021/03/13 08:00:59;;;;;;;0.98;0.40;;;;;;;8.14;79.16;96820.28;5044058;28;20238;-76
2021/03/13 08:03:40;;;;;;;1.58;0.65;;;;;;;8.19;75.45;96833.06;5052506;28;20217;-75
2021/03/13 08:06:07;;;;;;;3.35;0.73;;;;;;;8.24;72.19;96841.47;5050084;28;20237;-77
2021/03/13 08:08:36;;;;;;;1.33;0.43;;;;;;;8.26;74.34;96824.88;5048002;28;20242;-78
2021/03/13 08:11:03;;;;;;;0.80;0.47;;;;;;;8.28;77.78;96817.84;5047157;28;20679;-76
2021/03/13 08:13:57;;;;;;;2.25;0.40;;;;;;;8.37;72.62;96810.53;5049609;28;20941;-77
2021/03/13 08:16:42;;;;;;;0.40;0.30;;;;;;;8.42;73.13;96813.75;5029078;28;20244;-77
2021/03/13 08:19:34;;;;;;;8.98;0.60;;;;;;;8.47;72.10;96806.53;5045044;28;20264;-78
2021/03/13 08:22:23;;;;;;;1.05;0.50;;;;;;;8.49;71.20;96804.69;5044565;28;20607;-77
2021/03/13 08:24:50;;;;;;;1.30;0.55;;;;;;;8.53;74.91;96790.66;5049346;28;20544;-76
2021/03/13 08:27:18;;;;;;;1.95;0.60;;;;;;;8.57;72.95;96806.94;5049341;28;20234;-77
2021/03/13 08:29:56;;;;;;;1.38;0.52;;;;;;;8.58;71.51;96785.19;5049168;28;20213;-78
2021/03/13 08:33:04;;;;;;;1.33;0.60;;;;;;;8.66;73.28;96790.84;5050780;28;20777;-77
2021/03/13 08:35:50;;;;;;;0.30;0.30;;;;;;;8.67;73.09;96788.19;5049308;28;20253;-77
2021/03/13 08:38:21;;;;;;;1.60;0.50;;;;;;;8.70;71.89;96801.94;5048949;28;20639;-77
2021/03/13 08:40:54;;;;;;;1.13;0.50;;;;;;;8.75;69.82;96795.56;5050701;28;20272;-77
2021/03/13 08:46:40;;;;;;;1.63;0.50;;;;;;;8.85;69.16;96790.72;5143979;27;20533;-76
2021/03/13 08:49:07;;;;;;;1.27;0.40;;;;;;;8.87;72.50;96781.06;5115398;28;20240;-77
2021/03/13 08:51:36;;;;;;;1.65;0.40;;;;;;;8.89;70.83;96784.41;5096522;27;20792;-77
2021/03/13 08:54:02;;;;;;;1.33;0.50;;;;;;;8.92;69.12;96786.03;5112786;28;20751;-78
2021/03/13 08:56:44;;;;;;;0.28;0.28;;;;;;;8.95;68.17;96765.91;5118898;28;20231;-79
2021/03/13 08:59:12;;;;;;;0.65;0.40;;;;;;;8.97;70.66;96760.59;5109974;28;20219;-78
2021/03/13 09:01:38;;;;;;;1.30;0.25;;;;;;;9.01;70.31;96744.75;5112784;27;20222;-77
2021/03/13 09:04:05;;;;;;;0.93;0.50;;;;;;;9.10;67.44;96747.75;5113354;28;20941;-75
2021/03/13 09:06:32;;;;;;;0.43;0.35;;;;;;;9.10;72.04;96737.34;5116017;28;20223;-76
2021/03/13 09:09:12;;;;;;;1.20;0.35;;;;;;;9.20;67.69;96730.72;5113927;28;20896;-78
2021/03/13 09:11:40;;;;;;;1.55;0.60;;;;;;;9.24;69.30;96714.88;5113388;27;20661;-77
2021/03/13 09:14:07;;;;;;;1.75;0.80;;;;;;;9.26;68.66;96722.56;5117930;28;20243;-74
2021/03/13 09:16:35;;;;;;;0.95;0.40;;;;;;;9.30;68.96;96715.44;5118062;27;20239;-75
2021/03/13 09:19:01;;;;;;;0.70;0.38;;;;;;;9.35;70.02;96706.44;5118708;28;20306;-78
2021/03/13 09:21:45;;;;;;;2.75;0.40;;;;;;;9.42;65.63;96702.56;5117604;27;20219;-77
2021/03/13 09:24:13;;;;;;;0.93;0.40;;;;;;;9.44;67.01;96698.09;5114727;28;20219;-76
2021/03/13 09:26:39;;;;;;;0.95;0.32;;;;;;;9.49;67.18;96708.28;5113565;27;20231;-75
2021/03/13 09:29:05;;;;;;;1.42;0.38;;;;;;;9.52;71.20;96692.50;5115061;28;20222;-75
2021/03/13 09:31:32;;;;;;;0.47;0.30;;;;;;;9.60;69.23;96686.84;5114044;27;20242;-78
2021/03/13 09:34:15;;;;;;;2.22;0.50;;;;;;;9.61;63.73;96680.69;5113197;28;20214;-78
2021/03/13 09:36:44;;;;;;;0.82;0.47;;;;;;;9.68;67.24;96684.59;5115019;27;21037;-75
2021/03/13 09:39:14;;;;;;;0.77;0.22;;;;;;;9.75;69.42;96675.50;5118498;28;20682;-75
2021/03/13 09:41:40;;;;;;;1.05;0.30;;;;;;;9.78;63.79;96666.69;5116390;28;20243;-76
2021/03/13 09:44:07;;;;;;;1.17;0.32;;;;;;;9.78;67.53;96656.28;5114395;28;20225;-77
2021/03/13 09:46:33;;;;;;;2.60;0.65;;;;;;;9.77;65.65;96657.19;5113383;28;20246;-77
2021/03/13 09:48:59;;;;;;;2.42;0.35;;;;;;;9.76;67.91;96653.78;5112742;28;20208;-77
2021/03/13 09:51:27;;;;;;;0.80;0.40;;;;;;;9.81;66.21;96662.16;5116041;27;20223;-76
2021/03/13 09:53:54;;;;;;;2.30;0.73;;;;;;;9.81;65.30;96662.16;5115606;28;20571;-77
2021/03/13 09:56:30;;;;;;;0.90;0.52;;;;;;;9.89;61.27;96645.19;5107098;27;20802;-77
2021/03/13 09:58:59;;;;;;;0.77;0.25;;;;;;;9.87;60.67;96649.66;5103576;28;20211;-78
2021/03/13 10:01:25;;;;;;;1.95;0.47;;;;;;;9.90;58.21;96652.09;5102297;28;20235;-78
2021/03/13 10:03:54;;;;;;;0.80;0.30;;;;;;;9.90;58.62;96639.06;5099910;28;20257;-78
2021/03/13 10:06:20;;;;;;;1.23;0.30;;;;;;;9.91;58.34;96638.16;5099538;28;20232;-77
2021/03/13 10:08:46;;;;;;;0.57;0.20;;;;;;;9.97;58.82;96624.75;5098884;28;20490;-76
2021/03/13 10:11:13;;;;;;;1.17;0.30;;;;;;;10.08;58.29;96627.53;5103314;28;20267;-77
2021/03/13 10:13:39;;;;;;;2.10;0.50;;;;;;;10.16;57.31;96627.06;5104184;28;20236;-74
2021/03/13 10:16:05;;;;;;;0.95;0.45;;;;;;;10.18;56.51;96610.44;5102953;28;20288;-75
2021/03/13 10:19:43;;;;;;;0.90;0.30;;;;;;;10.19;56.43;96617.28;5106059;27;20861;-77
2021/03/13 10:22:12;;;;;;;0.30;0.17;;;;;;;10.22;55.96;96626.72;5086451;27;20271;-77
2021/03/13 10:24:52;;;;;;;1.02;0.30;;;;;;;10.23;56.61;96637.00;5083382;28;20204;-77
2021/03/13 10:27:22;;;;;;;0.80;0.22;;;;;;;10.26;56.38;96603.91;5075483;27;20236;-77
2021/03/13 10:29:50;;;;;;;0.77;0.30;;;;;;;10.29;55.21;96608.91;5063357;28;20211;-77
2021/03/13 10:32:22;;;;;;;0.40;0.20;;;;;;;10.29;55.02;96601.91;5058586;28;20348;-77
2021/03/13 10:35:04;;;;;;;0.70;0.40;;;;;;;10.33;55.71;96592.19;5063886;28;20209;-77
2021/03/13 10:37:38;;;;;;;0.98;0.17;;;;;;;10.37;55.56;96580.66;5065046;28;20623;-76
2021/03/13 10:40:05;;;;;;;1.15;0.30;;;;;;;10.42;55.21;96594.22;5064856;28;20217;-77
2021/03/13 10:42:34;;;;;;;0.20;0.20;;;;;;;10.42;55.47;96589.00;5064361;28;20295;-79
2021/03/13 10:45:14;;;;;;;0.88;0.40;;;;;;;10.45;55.11;96585.38;5063519;28;20212;-77
2021/03/13 10:47:40;;;;;;;0.85;0.32;;;;;;;10.43;54.37;96580.25;5041977;28;20653;-77
2021/03/13 10:50:08;;;;;;;0.80;0.30;;;;;;;10.49;55.21;96585.06;5046249;28;20297;-75
2021/03/13 10:52:35;;;;;;;0.30;0.13;;;;;;;10.51;54.34;96561.50;5041303;28;20225;-76
2021/03/13 10:55:01;;;;;;;0.70;0.30;;;;;;;10.51;55.35;96567.59;5042253;28;20206;-77
2021/03/13 10:57:27;;;;;;;1.20;0.38;;;;;;;10.50;56.24;96565.06;5042332;28;20229;-79
2021/03/13 10:59:53;;;;;;;1.20;0.38;;;;;;;10.54;55.57;96569.97;5042052;28;20217;-78
2021/03/13 11:02:19;;;;;;;4.70;0.57;;;;;;;10.55;55.09;96557.78;5041671;28;20221;-78
2021/03/13 11:04:45;;;;;;;2.15;0.35;;;;;;;10.59;53.83;96548.84;5043523;28;20210;-78
2021/03/13 11:07:12;;;;;;;0.95;0.20;;;;;;;10.55;54.01;96543.00;5042762;28;20287;-76
2021/03/13 11:09:38;;;;;;;2.00;0.50;;;;;;;10.62;54.40;96543.41;5043200;28;20210;-78
2021/03/13 11:12:05;;;;;;;1.58;0.55;;;;;;;10.65;54.26;96547.63;5044455;28;20311;-78
2021/03/13 11:14:32;;;;;;;0.30;0.20;;;;;;;10.61;53.97;96545.19;5043501;28;20222;-76
2021/03/13 11:16:58;;;;;;;1.45;0.50;;;;;;;10.66;53.86;96542.31;5042191;28;20241;-77
2021/03/13 11:19:25;;;;;;;0.47;0.22;;;;;;;10.68;52.79;96542.19;5044116;28;20818;-78
2021/03/13 11:21:51;;;;;;;1.52;0.30;;;;;;;10.68;52.93;96547.41;5044600;28;20238;-76
2021/03/13 11:24:18;;;;;;;0.85;0.17;;;;;;;10.68;52.61;96543.03;5044470;28;20206;-77
2021/03/13 11:26:45;;;;;;;1.80;0.40;;;;;;;10.73;52.29;96535.75;5041617;28;20242;-77
2021/03/13 11:29:11;;;;;;;0.50;0.20;;;;;;;10.81;52.18;96537.88;5039635;28;20791;-77
2021/03/13 11:31:38;;;;;;;0.90;0.30;;;;;;;10.85;51.16;96538.50;5028868;28;20300;-76
2021/03/13 11:34:04;;;;;;;1.08;0.35;;;;;;;11.13;51.16;96522.66;5031593;28;20226;-80
2021/03/13 11:36:30;;;;;;;0.68;0.20;;;;;;;11.08;50.69;96518.69;5024559;28;20235;-81
2021/03/13 11:38:56;;;;;;;1.02;0.30;;;;;;;11.03;51.03;96505.13;5029107;28;20245;-82
2021/03/13 11:41:23;;;;;;;0.93;0.50;;;;;;;10.97;50.18;96506.38;5029781;28;20234;-79
2021/03/13 11:43:49;;;;;;;0.70;0.30;;;;;;;10.99;50.97;96521.00;5032265;28;20211;-78
2021/03/13 11:46:15;;;;;;;0.60;0.13;;;;;;;11.03;50.27;96505.13;5028572;28;20226;-78
2021/03/13 11:48:42;;;;;;;0.85;0.30;;;;;;;11.07;49.85;96511.84;5027442;28;20234;-79
2021/03/13 11:51:09;;;;;;;0.52;0.10;;;;;;;11.09;50.46;96504.72;5029207;28;20234;-78
2021/03/13 11:53:35;;;;;;;0.60;0.30;;;;;;;11.08;50.95;96509.13;5028356;28;20207;-76